sensor_id;sensor_type;location;lat;lon;timestamp;pressure;altitude;pressure_sealevel;temperature;humidity
46954;BME280;32707;43.886;12.874;2022-07-01T00:00:34;100972.34;;;24.25;66.04
46954;BME280;32707;43.886;12.874;2022-07-01T00:02:59;100967.84;;;24.17;66.12
46954;BME280;32707;43.886;12.874;2022-07-01T00:05:25;100971.16;;;24.12;66.34
46954;BME280;32707;43.886;12.874;2022-07-01T00:07:50;100967.88;;;24.10;66.36
46954;BME280;32707;43.886;12.874;2022-07-01T00:10:16;100956.84;;;24.12;66.21
46954;BME280;32707;43.886;12.874;2022-07-01T00:12:41;100956.00;;;24.15;66.00
46954;BME280;32707;43.886;12.874;2022-07-01T00:15:07;100961.31;;;24.13;66.26
46954;BME280;32707;43.886;12.874;2022-07-01T00:17:34;100958.06;;;24.11;66.22
46954;BME280;32707;43.886;12.874;2022-07-01T00:20:00;100966.66;;;24.04;66.57
46954;BME280;32707;43.886;12.874;2022-07-01T00:22:25;100962.19;;;23.92;66.90
46954;BME280;32707;43.886;12.874;2022-07-01T00:24:53;100967.50;;;23.90;67.26
46954;BME280;32707;43.886;12.874;2022-07-01T00:27:18;100974.00;;;23.87;67.31
46954;BME280;32707;43.886;12.874;2022-07-01T00:29:44;100979.72;;;23.91;67.52
46954;BME280;32707;43.886;12.874;2022-07-01T00:32:09;100980.13;;;23.93;67.38
46954;BME280;32707;43.886;12.874;2022-07-01T00:34:35;100977.28;;;23.93;67.37
46954;BME280;32707;43.886;12.874;2022-07-01T00:37:00;100978.09;;;23.97;67.42
46954;BME280;32707;43.886;12.874;2022-07-01T00:39:26;100976.88;;;23.94;67.49
46954;BME280;32707;43.886;12.874;2022-07-01T00:41:51;100978.13;;;23.93;67.34
46954;BME280;32707;43.886;12.874;2022-07-01T00:44:22;100978.53;;;23.92;67.29
46954;BME280;32707;43.886;12.874;2022-07-01T00:46:50;100983.00;;;23.93;67.06
46954;BME280;32707;43.886;12.874;2022-07-01T00:49:16;100980.97;;;23.93;66.90
46954;BME280;32707;43.886;12.874;2022-07-01T00:51:43;100985.84;;;23.93;66.65
46954;BME280;32707;43.886;12.874;2022-07-01T00:54:09;100978.91;;;23.94;66.58
46954;BME280;32707;43.886;12.874;2022-07-01T00:56:35;100984.63;;;23.94;66.58
46954;BME280;32707;43.886;12.874;2022-07-01T00:59:00;100984.22;;;23.95;66.37
46954;BME280;32707;43.886;12.874;2022-07-01T01:01:26;100983.81;;;23.93;66.14
46954;BME280;32707;43.886;12.874;2022-07-01T01:03:52;100983.44;;;23.88;66.10
46954;BME280;32707;43.886;12.874;2022-07-01T01:06:17;100994.00;;;23.83;66.45
46954;BME280;32707;43.886;12.874;2022-07-01T01:08:43;100999.72;;;23.80;66.65
46954;BME280;32707;43.886;12.874;2022-07-01T01:11:09;100989.53;;;23.79;66.21
46954;BME280;32707;43.886;12.874;2022-07-01T01:13:35;100991.16;;;23.76;66.13
46954;BME280;32707;43.886;12.874;2022-07-01T01:16:01;101002.97;;;23.78;65.84
46954;BME280;32707;43.886;12.874;2022-07-01T01:18:26;100987.88;;;23.71;65.69
46954;BME280;32707;43.886;12.874;2022-07-01T01:20:52;100994.81;;;23.77;65.43
46954;BME280;32707;43.886;12.874;2022-07-01T01:23:18;100993.16;;;23.76;65.45
46954;BME280;32707;43.886;12.874;2022-07-01T01:25:46;100990.31;;;23.76;65.27
46954;BME280;32707;43.886;12.874;2022-07-01T01:28:12;101005.84;;;23.75;65.10
46954;BME280;32707;43.886;12.874;2022-07-01T01:30:37;101002.13;;;23.74;64.84
46954;BME280;32707;43.886;12.874;2022-07-01T01:33:03;100995.63;;;23.74;64.69
46954;BME280;32707;43.886;12.874;2022-07-01T01:35:29;100996.44;;;23.71;64.74
46954;BME280;32707;43.886;12.874;2022-07-01T01:37:54;100998.88;;;23.72;64.38
46954;BME280;32707;43.886;12.874;2022-07-01T01:40:20;101002.16;;;23.67;64.37
46954;BME280;32707;43.886;12.874;2022-07-01T01:42:45;100997.66;;;23.62;64.36
46954;BME280;32707;43.886;12.874;2022-07-01T01:45:11;100995.59;;;23.63;64.44
46954;BME280;32707;43.886;12.874;2022-07-01T01:47:40;100986.63;;;23.61;63.90
46954;BME280;32707;43.886;12.874;2022-07-01T01:50:08;100991.13;;;23.62;63.70
46954;BME280;32707;43.886;12.874;2022-07-01T01:52:34;100995.19;;;23.64;63.54
46954;BME280;32707;43.886;12.874;2022-07-01T01:55:00;100990.31;;;23.65;63.50
46954;BME280;32707;43.886;12.874;2022-07-01T01:57:26;100998.91;;;23.65;63.43
46954;BME280;32707;43.886;12.874;2022-07-01T01:59:51;101004.59;;;23.61;63.24
46954;BME280;32707;43.886;12.874;2022-07-01T02:02:17;101012.31;;;23.57;63.43
46954;BME280;32707;43.886;12.874;2022-07-01T02:04:42;101009.06;;;23.52;63.40
46954;BME280;32707;43.886;12.874;2022-07-01T02:07:08;101009.47;;;23.43;63.38
46954;BME280;32707;43.886;12.874;2022-07-01T02:09:33;101007.81;;;23.35;63.25
46954;BME280;32707;43.886;12.874;2022-07-01T02:11:59;101003.31;;;23.26;63.54
46954;BME280;32707;43.886;12.874;2022-07-01T02:14:24;101004.94;;;23.24;63.62
46954;BME280;32707;43.886;12.874;2022-07-01T02:16:50;101011.44;;;23.17;63.52
46954;BME280;32707;43.886;12.874;2022-07-01T02:19:15;101005.31;;;23.12;63.58
46954;BME280;32707;43.886;12.874;2022-07-01T02:21:41;101001.63;;;23.07;63.74
46954;BME280;32707;43.886;12.874;2022-07-01T02:24:06;100995.47;;;23.02;63.57
46954;BME280;32707;43.886;12.874;2022-07-01T02:26:32;101012.16;;;23.00;63.67
46954;BME280;32707;43.886;12.874;2022-07-01T02:28:57;101015.41;;;22.95;63.61
46954;BME280;32707;43.886;12.874;2022-07-01T02:31:23;101023.13;;;22.87;63.81
46954;BME280;32707;43.886;12.874;2022-07-01T02:33:48;101023.47;;;22.78;63.93
46954;BME280;32707;43.886;12.874;2022-07-01T02:36:14;101018.59;;;22.75;64.14
46954;BME280;32707;43.886;12.874;2022-07-01T02:38:39;101020.56;;;22.71;64.15
46954;BME280;32707;43.886;12.874;2022-07-01T02:41:05;101027.50;;;22.66;64.05
46954;BME280;32707;43.886;12.874;2022-07-01T02:43:30;101019.28;;;22.58;64.27
46954;BME280;32707;43.886;12.874;2022-07-01T02:45:57;101022.97;;;22.55;64.21
46954;BME280;32707;43.886;12.874;2022-07-01T02:48:23;101031.09;;;22.52;64.28
46954;BME280;32707;43.886;12.874;2022-07-01T02:50:48;101035.53;;;22.50;64.31
46954;BME280;32707;43.886;12.874;2022-07-01T02:53:14;101035.94;;;22.45;64.37
46954;BME280;32707;43.886;12.874;2022-07-01T02:55:39;101021.22;;;22.43;64.30
46954;BME280;32707;43.886;12.874;2022-07-01T02:58:05;101021.66;;;22.41;64.23
46954;BME280;32707;43.886;12.874;2022-07-01T03:00:30;101026.09;;;22.39;64.09
46954;BME280;32707;43.886;12.874;2022-07-01T03:02:56;101028.13;;;22.35;64.23
46954;BME280;32707;43.886;12.874;2022-07-01T03:05:21;101044.00;;;22.32;64.11
46954;BME280;32707;43.886;12.874;2022-07-01T03:07:47;101036.63;;;22.31;64.14
46954;BME280;32707;43.886;12.874;2022-07-01T03:10:13;101038.69;;;22.30;63.99
46954;BME280;32707;43.886;12.874;2022-07-01T03:12:38;101044.00;;;22.32;64.01
46954;BME280;32707;43.886;12.874;2022-07-01T03:15:10;101029.75;;;22.32;63.76
46954;BME280;32707;43.886;12.874;2022-07-01T03:17:39;101030.56;;;22.32;63.66
46954;BME280;32707;43.886;12.874;2022-07-01T03:20:07;101033.00;;;22.34;63.52
46954;BME280;32707;43.886;12.874;2022-07-01T03:22:33;101037.09;;;22.37;63.47
46954;BME280;32707;43.886;12.874;2022-07-01T03:24:58;101039.53;;;22.38;63.44
46954;BME280;32707;43.886;12.874;2022-07-01T03:27:24;101038.34;;;22.43;63.26
46954;BME280;32707;43.886;12.874;2022-07-01T03:29:51;101030.22;;;22.45;62.92
46954;BME280;32707;43.886;12.874;2022-07-01T03:32:17;101036.78;;;22.49;62.82
46954;BME280;32707;43.886;12.874;2022-07-01T03:34:48;101031.53;;;22.58;62.51
46954;BME280;32707;43.886;12.874;2022-07-01T03:37:15;101029.16;;;22.67;62.16
46954;BME280;32707;43.886;12.874;2022-07-01T03:39:41;101030.81;;;22.76;61.75
46954;BME280;32707;43.886;12.874;2022-07-01T03:42:07;101023.13;;;22.87;61.37
46954;BME280;32707;43.886;12.874;2022-07-01T03:44:34;101029.69;;;22.98;60.81
46954;BME280;32707;43.886;12.874;2022-07-01T03:47:01;101028.50;;;23.06;60.48
46954;BME280;32707;43.886;12.874;2022-07-01T03:49:28;101029.38;;;23.18;60.00
46954;BME280;32707;43.886;12.874;2022-07-01T03:51:54;101033.06;;;23.29;59.40
46954;BME280;32707;43.886;12.874;2022-07-01T03:54:19;101044.94;;;23.38;59.00
46954;BME280;32707;43.886;12.874;2022-07-01T03:57:05;101047.00;;;23.48;58.79
46954;BME280;32707;43.886;12.874;2022-07-01T03:59:34;101053.16;;;23.58;58.55
46954;BME280;32707;43.886;12.874;2022-07-01T04:02:01;101067.41;;;23.68;57.99
46954;BME280;32707;43.886;12.874;2022-07-01T04:04:27;101067.84;;;23.74;57.57
46954;BME280;32707;43.886;12.874;2022-07-01T04:06:53;101078.09;;;23.79;57.46
46954;BME280;32707;43.886;12.874;2022-07-01T04:09:21;101087.03;;;23.77;57.01
46954;BME280;32707;43.886;12.874;2022-07-01T04:11:48;101087.84;;;23.71;57.10
46954;BME280;32707;43.886;12.874;2022-07-01T04:14:14;101097.22;;;23.67;57.16
46954;BME280;32707;43.886;12.874;2022-07-01T04:16:41;101111.91;;;23.66;56.98
46954;BME280;32707;43.886;12.874;2022-07-01T04:19:07;101105.78;;;23.64;57.08
46954;BME280;32707;43.886;12.874;2022-07-01T04:21:33;101113.13;;;23.61;56.82
46954;BME280;32707;43.886;12.874;2022-07-01T04:24:17;101116.78;;;23.58;56.81
46954;BME280;32707;43.886;12.874;2022-07-01T04:26:44;101106.56;;;23.57;56.64
46954;BME280;32707;43.886;12.874;2022-07-01T04:29:10;101093.97;;;23.65;56.50
46954;BME280;32707;43.886;12.874;2022-07-01T04:31:37;101094.78;;;23.73;56.21
46954;BME280;32707;43.886;12.874;2022-07-01T04:34:04;101090.34;;;23.79;56.16
46954;BME280;32707;43.886;12.874;2022-07-01T04:36:29;101087.09;;;23.88;55.56
46954;BME280;32707;43.886;12.874;2022-07-01T04:38:54;101081.41;;;23.99;55.31
46954;BME280;32707;43.886;12.874;2022-07-01T04:41:20;101076.47;;;24.14;54.97
46954;BME280;32707;43.886;12.874;2022-07-01T04:44:05;101087.09;;;24.35;54.55
46954;BME280;32707;43.886;12.874;2022-07-01T04:46:30;101094.47;;;24.54;53.97
46954;BME280;32707;43.886;12.874;2022-07-01T04:48:56;101095.66;;;24.71;53.45
46954;BME280;32707;43.886;12.874;2022-07-01T04:51:21;101090.75;;;24.78;53.36
46954;BME280;32707;43.886;12.874;2022-07-01T04:53:47;101089.06;;;24.84;53.04
46954;BME280;32707;43.886;12.874;2022-07-01T04:56:13;101091.94;;;24.92;52.92
46954;BME280;32707;43.886;12.874;2022-07-01T04:58:39;101101.72;;;24.94;52.82
46954;BME280;32707;43.886;12.874;2022-07-01T05:01:04;101098.44;;;24.99;52.62
46954;BME280;32707;43.886;12.874;2022-07-01T05:03:30;101087.38;;;25.01;52.61
46954;BME280;32707;43.886;12.874;2022-07-01T05:05:55;101088.66;;;24.97;52.55
46954;BME280;32707;43.886;12.874;2022-07-01T05:08:21;101089.47;;;24.90;52.63
46954;BME280;32707;43.886;12.874;2022-07-01T05:10:46;101084.56;;;24.91;52.61
46954;BME280;32707;43.886;12.874;2022-07-01T05:13:12;101082.91;;;24.97;52.39
46954;BME280;32707;43.886;12.874;2022-07-01T05:15:37;101086.97;;;25.07;52.23
46954;BME280;32707;43.886;12.874;2022-07-01T05:18:03;101084.06;;;25.21;51.82
46954;BME280;32707;43.886;12.874;2022-07-01T05:20:47;101076.66;;;25.38;51.48
46954;BME280;32707;43.886;12.874;2022-07-01T05:23:31;101080.25;;;25.53;51.15
46954;BME280;32707;43.886;12.874;2022-07-01T05:25:56;101081.81;;;25.65;50.84
46954;BME280;32707;43.886;12.874;2022-07-01T05:28:22;101087.50;;;25.72;50.83
46954;BME280;32707;43.886;12.874;2022-07-01T05:30:47;101080.50;;;25.73;50.74
46954;BME280;32707;43.886;12.874;2022-07-01T05:33:14;101087.47;;;25.75;50.69
46954;BME280;32707;43.886;12.874;2022-07-01T05:35:39;101079.31;;;25.70;50.61
46954;BME280;32707;43.886;12.874;2022-07-01T05:38:05;101083.78;;;25.75;50.64
46954;BME280;32707;43.886;12.874;2022-07-01T05:40:30;101084.09;;;25.88;50.37
46954;BME280;32707;43.886;12.874;2022-07-01T05:42:55;101078.69;;;26.04;50.01
46954;BME280;32707;43.886;12.874;2022-07-01T05:45:21;101074.84;;;26.22;49.43
46954;BME280;32707;43.886;12.874;2022-07-01T05:47:46;101072.69;;;26.33;49.02
46954;BME280;32707;43.886;12.874;2022-07-01T05:50:12;101072.13;;;26.52;48.69
46954;BME280;32707;43.886;12.874;2022-07-01T05:52:37;101072.69;;;26.78;48.37
46954;BME280;32707;43.886;12.874;2022-07-01T05:55:03;101079.00;;;27.00;47.79
46954;BME280;32707;43.886;12.874;2022-07-01T05:57:29;101075.44;;;27.20;46.91
46954;BME280;32707;43.886;12.874;2022-07-01T05:59:54;101069.91;;;27.40;46.54
46954;BME280;32707;43.886;12.874;2022-07-01T06:02:20;101070.47;;;27.58;46.04
46954;BME280;32707;43.886;12.874;2022-07-01T06:04:45;101068.88;;;27.81;45.53
46954;BME280;32707;43.886;12.874;2022-07-01T06:07:11;101055.75;;;28.07;44.86
46954;BME280;32707;43.886;12.874;2022-07-01T06:09:37;101058.56;;;28.34;44.20
46954;BME280;32707;43.886;12.874;2022-07-01T06:12:03;101053.69;;;28.55;43.62
46954;BME280;32707;43.886;12.874;2022-07-01T06:14:29;101062.81;;;28.73;43.13
46954;BME280;32707;43.886;12.874;2022-07-01T06:16:54;101060.75;;;28.94;42.99
46954;BME280;32707;43.886;12.874;2022-07-01T06:19:20;101070.34;;;29.07;42.58
46954;BME280;32707;43.886;12.874;2022-07-01T06:21:46;101058.63;;;29.18;42.56
46954;BME280;32707;43.886;12.874;2022-07-01T06:24:12;101060.31;;;29.35;42.49
46954;BME280;32707;43.886;12.874;2022-07-01T06:26:37;101068.91;;;29.55;42.43
46954;BME280;32707;43.886;12.874;2022-07-01T06:29:02;101057.81;;;29.74;41.93
46954;BME280;32707;43.886;12.874;2022-07-01T06:31:28;101067.38;;;29.87;41.90
46954;BME280;32707;43.886;12.874;2022-07-01T06:33:54;101061.63;;;30.03;41.53
46954;BME280;32707;43.886;12.874;2022-07-01T06:36:20;101057.66;;;30.14;41.50
46954;BME280;32707;43.886;12.874;2022-07-01T06:38:46;101065.06;;;30.15;41.15
46954;BME280;32707;43.886;12.874;2022-07-01T06:41:11;101060.34;;;30.21;40.83
46954;BME280;32707;43.886;12.874;2022-07-01T06:43:52;101064.59;;;30.33;40.62
46954;BME280;32707;43.886;12.874;2022-07-01T06:46:19;101050.34;;;30.42;39.95
46954;BME280;32707;43.886;12.874;2022-07-01T06:48:44;101046.53;;;30.61;39.38
46954;BME280;32707;43.886;12.874;2022-07-01T06:51:10;101047.16;;;30.82;39.09
46954;BME280;32707;43.886;12.874;2022-07-01T06:53:35;101041.16;;;31.06;38.51
46954;BME280;32707;43.886;12.874;2022-07-01T06:56:01;101038.06;;;31.26;37.59
46954;BME280;32707;43.886;12.874;2022-07-01T06:58:26;101032.78;;;31.37;37.48
46954;BME280;32707;43.886;12.874;2022-07-01T07:00:52;101025.28;;;31.52;36.40
46954;BME280;32707;43.886;12.874;2022-07-01T07:03:18;101027.25;;;31.68;35.96
46954;BME280;32707;43.886;12.874;2022-07-01T07:05:43;101022.13;;;31.85;35.29
46954;BME280;32707;43.886;12.874;2022-07-01T07:08:09;101020.84;;;31.99;34.99
46954;BME280;32707;43.886;12.874;2022-07-01T07:10:37;101016.22;;;32.14;34.25
46954;BME280;32707;43.886;12.874;2022-07-01T07:13:03;101020.09;;;32.33;33.85
46954;BME280;32707;43.886;12.874;2022-07-01T07:15:28;101010.25;;;32.44;33.52
46954;BME280;32707;43.886;12.874;2022-07-01T07:17:54;101018.28;;;32.62;32.80
46954;BME280;32707;43.886;12.874;2022-07-01T07:20:23;101020.53;;;32.80;32.24
46954;BME280;32707;43.886;12.874;2022-07-01T07:22:48;101008.03;;;32.92;31.51
46954;BME280;32707;43.886;12.874;2022-07-01T07:25:14;101003.94;;;33.02;31.34
46954;BME280;32707;43.886;12.874;2022-07-01T07:27:57;100976.72;;;33.31;30.90
46954;BME280;32707;43.886;12.874;2022-07-01T07:30:23;100970.09;;;33.62;30.04
46954;BME280;32707;43.886;12.874;2022-07-01T07:32:49;100961.59;;;33.77;29.91
46954;BME280;32707;43.886;12.874;2022-07-01T07:35:15;100954.56;;;33.96;29.46
46954;BME280;32707;43.886;12.874;2022-07-01T07:37:41;100962.47;;;34.14;29.39
46954;BME280;32707;43.886;12.874;2022-07-01T07:40:08;100968.50;;;34.38;28.98
46954;BME280;32707;43.886;12.874;2022-07-01T07:42:36;100963.63;;;34.54;28.02
46954;BME280;32707;43.886;12.874;2022-07-01T07:45:02;100964.63;;;34.60;27.84
46954;BME280;32707;43.886;12.874;2022-07-01T07:47:28;100963.16;;;34.74;27.65
46954;BME280;32707;43.886;12.874;2022-07-01T07:49:54;100960.88;;;34.78;27.41
46954;BME280;32707;43.886;12.874;2022-07-01T07:52:19;100963.00;;;34.68;27.29
46954;BME280;32707;43.886;12.874;2022-07-01T07:54:45;100957.50;;;34.79;27.12
46954;BME280;32707;43.886;12.874;2022-07-01T07:57:10;100960.50;;;35.03;26.67
46954;BME280;32707;43.886;12.874;2022-07-01T07:59:36;100954.50;;;35.26;26.36
46954;BME280;32707;43.886;12.874;2022-07-01T08:02:01;100953.63;;;35.34;26.55
46954;BME280;32707;43.886;12.874;2022-07-01T08:04:27;100952.63;;;35.47;25.76
46954;BME280;32707;43.886;12.874;2022-07-01T08:06:53;100947.06;;;35.58;25.47
46954;BME280;32707;43.886;12.874;2022-07-01T08:09:18;100948.75;;;35.74;25.55
46954;BME280;32707;43.886;12.874;2022-07-01T08:11:44;100955.97;;;35.88;25.23
46954;BME280;32707;43.886;12.874;2022-07-01T08:14:10;100955.78;;;35.91;25.12
46954;BME280;32707;43.886;12.874;2022-07-01T08:16:36;100957.81;;;36.00;24.91
46954;BME280;32707;43.886;12.874;2022-07-01T08:19:01;100964.00;;;36.17;24.27
46954;BME280;32707;43.886;12.874;2022-07-01T08:21:28;100960.09;;;36.44;23.84
46954;BME280;32707;43.886;12.874;2022-07-01T08:23:54;100970.41;;;36.84;23.28
46954;BME280;32707;43.886;12.874;2022-07-01T08:26:19;100972.53;;;37.13;23.24
46954;BME280;32707;43.886;12.874;2022-07-01T08:28:45;100982.66;;;37.48;22.52
46954;BME280;32707;43.886;12.874;2022-07-01T08:31:10;100990.13;;;38.05;21.80
46954;BME280;32707;43.886;12.874;2022-07-01T08:33:36;100995.47;;;38.68;21.09
46954;BME280;32707;43.886;12.874;2022-07-01T08:36:06;100992.28;;;39.18;20.53
46954;BME280;32707;43.886;12.874;2022-07-01T08:38:31;100998.47;;;39.58;20.58
46954;BME280;32707;43.886;12.874;2022-07-01T08:40:57;100993.44;;;40.01;19.94
46954;BME280;32707;43.886;12.874;2022-07-01T08:43:25;100988.03;;;40.43;19.51
46954;BME280;32707;43.886;12.874;2022-07-01T08:45:52;100996.13;;;40.71;19.34
46954;BME280;32707;43.886;12.874;2022-07-01T08:48:20;100984.44;;;40.82;19.04
46954;BME280;32707;43.886;12.874;2022-07-01T08:50:46;100976.72;;;40.79;19.16
46954;BME280;32707;43.886;12.874;2022-07-01T08:53:12;100974.31;;;40.77;19.23
46954;BME280;32707;43.886;12.874;2022-07-01T08:55:39;100964.16;;;40.84;18.83
46954;BME280;32707;43.886;12.874;2022-07-01T08:58:25;100965.56;;;41.28;18.67
46954;BME280;32707;43.886;12.874;2022-07-01T09:00:51;100972.69;;;41.72;18.09
46954;BME280;32707;43.886;12.874;2022-07-01T09:03:20;100955.59;;;41.82;18.17
46954;BME280;32707;43.886;12.874;2022-07-01T09:05:51;100961.16;;;41.91;17.83
46954;BME280;32707;43.886;12.874;2022-07-01T09:08:18;100962.53;;;41.85;17.93
46954;BME280;32707;43.886;12.874;2022-07-01T09:10:44;100967.28;;;41.93;17.33
46954;BME280;32707;43.886;12.874;2022-07-01T09:13:12;100953.66;;;42.07;17.19
46954;BME280;32707;43.886;12.874;2022-07-01T09:15:40;100960.47;;;42.32;16.82
46954;BME280;32707;43.886;12.874;2022-07-01T09:18:09;100962.72;;;42.68;16.99
46954;BME280;32707;43.886;12.874;2022-07-01T09:20:37;100953.59;;;42.71;17.40
46954;BME280;32707;43.886;12.874;2022-07-01T09:23:11;100957.09;;;42.17;18.51
46954;BME280;32707;43.886;12.874;2022-07-01T09:25:40;100957.75;;;41.70;19.61
46954;BME280;32707;43.886;12.874;2022-07-01T09:28:24;100956.47;;;41.43;20.55
46954;BME280;32707;43.886;12.874;2022-07-01T09:30:53;100962.59;;;41.40;20.55
46954;BME280;32707;43.886;12.874;2022-07-01T09:33:21;100955.38;;;41.18;21.30
46954;BME280;32707;43.886;12.874;2022-07-01T09:35:48;100959.66;;;41.00;21.78
46954;BME280;32707;43.886;12.874;2022-07-01T09:38:18;100955.59;;;40.75;22.31
46954;BME280;32707;43.886;12.874;2022-07-01T09:40:51;100958.50;;;40.58;22.82
46954;BME280;32707;43.886;12.874;2022-07-01T09:43:25;100961.38;;;40.41;23.22
46954;BME280;32707;43.886;12.874;2022-07-01T09:48:26;100962.78;;;40.57;23.68
46954;BME280;32707;43.886;12.874;2022-07-01T09:50:52;100976.25;;;40.32;24.11
46954;BME280;32707;43.886;12.874;2022-07-01T09:53:18;100962.91;;;40.25;24.37
46954;BME280;32707;43.886;12.874;2022-07-01T09:55:44;100959.91;;;40.08;24.83
46954;BME280;32707;43.886;12.874;2022-07-01T09:58:10;100974.63;;;40.19;24.98
46954;BME280;32707;43.886;12.874;2022-07-01T10:00:36;100965.34;;;40.32;25.02
46954;BME280;32707;43.886;12.874;2022-07-01T10:03:03;100965.66;;;40.40;25.25
46954;BME280;32707;43.886;12.874;2022-07-01T10:05:31;100955.06;;;40.65;25.26
46954;BME280;32707;43.886;12.874;2022-07-01T10:10:57;100960.91;;;40.59;25.56
46954;BME280;32707;43.886;12.874;2022-07-01T10:13:25;100967.84;;;40.62;25.66
46954;BME280;32707;43.886;12.874;2022-07-01T10:15:52;100960.72;;;40.86;25.44
46954;BME280;32707;43.886;12.874;2022-07-01T10:18:23;100959.66;;;41.00;25.20
46954;BME280;32707;43.886;12.874;2022-07-01T10:20:51;100974.34;;;41.06;25.31
46954;BME280;32707;43.886;12.874;2022-07-01T10:23:23;100957.53;;;41.00;25.17
46954;BME280;32707;43.886;12.874;2022-07-01T10:25:51;100966.34;;;41.29;25.07
46954;BME280;32707;43.886;12.874;2022-07-01T10:28:21;100975.94;;;41.41;24.62
46954;BME280;32707;43.886;12.874;2022-07-01T10:36:33;100977.16;;;42.02;24.60
46954;BME280;32707;43.886;12.874;2022-07-01T10:41:54;100969.13;;;42.02;24.63
46954;BME280;32707;43.886;12.874;2022-07-01T10:44:22;100959.38;;;41.66;25.28
46954;BME280;32707;43.886;12.874;2022-07-01T10:47:05;100956.97;;;41.58;25.47
46954;BME280;32707;43.886;12.874;2022-07-01T10:51:59;100957.78;;;40.97;26.01
46954;BME280;32707;43.886;12.874;2022-07-01T10:59:41;100951.91;;;41.48;25.63
46954;BME280;32707;43.886;12.874;2022-07-01T11:02:15;100944.44;;;41.58;25.59
46954;BME280;32707;43.886;12.874;2022-07-01T11:04:41;100955.03;;;41.84;25.28
46954;BME280;32707;43.886;12.874;2022-07-01T11:07:08;100946.13;;;42.18;25.30
46954;BME280;32707;43.886;12.874;2022-07-01T11:09:33;100949.00;;;42.29;25.24
46954;BME280;32707;43.886;12.874;2022-07-01T11:11:59;100940.56;;;42.08;25.41
46954;BME280;32707;43.886;12.874;2022-07-01T11:14:26;100943.56;;;41.80;25.99
46954;BME280;32707;43.886;12.874;2022-07-01T11:16:52;100947.13;;;41.45;26.42
46954;BME280;32707;43.886;12.874;2022-07-01T11:19:19;100939.38;;;41.13;26.85
46954;BME280;32707;43.886;12.874;2022-07-01T11:21:51;100932.19;;;40.92;27.08
46954;BME280;32707;43.886;12.874;2022-07-01T11:24:21;100937.25;;;41.08;27.15
46954;BME280;32707;43.886;12.874;2022-07-01T11:26:47;100937.78;;;40.95;27.64
46954;BME280;32707;43.886;12.874;2022-07-01T11:29:14;100932.72;;;41.07;27.57
46954;BME280;32707;43.886;12.874;2022-07-01T11:31:41;100943.13;;;40.91;28.07
46954;BME280;32707;43.886;12.874;2022-07-01T11:34:08;100931.06;;;40.67;28.53
46954;BME280;32707;43.886;12.874;2022-07-01T11:36:34;100945.47;;;40.65;28.72
46954;BME280;32707;43.886;12.874;2022-07-01T11:39:19;100929.56;;;40.11;29.44
46954;BME280;32707;43.886;12.874;2022-07-01T11:41:59;100932.72;;;39.53;30.35
46954;BME280;32707;43.886;12.874;2022-07-01T11:44:40;100925.19;;;39.09;30.99
46954;BME280;32707;43.886;12.874;2022-07-01T11:47:09;100924.88;;;38.75;31.50
46954;BME280;32707;43.886;12.874;2022-07-01T11:49:46;100922.44;;;38.74;31.54
46954;BME280;32707;43.886;12.874;2022-07-01T11:52:13;100923.41;;;38.91;31.63
46954;BME280;32707;43.886;12.874;2022-07-01T11:54:40;100919.41;;;38.88;32.13
46954;BME280;32707;43.886;12.874;2022-07-01T11:57:15;100914.09;;;38.61;32.55
46954;BME280;32707;43.886;12.874;2022-07-01T11:59:42;100912.06;;;38.46;32.80
46954;BME280;32707;43.886;12.874;2022-07-01T12:02:10;100916.69;;;38.33;32.72
46954;BME280;32707;43.886;12.874;2022-07-01T12:04:37;100918.06;;;38.37;32.51
46954;BME280;32707;43.886;12.874;2022-07-01T12:07:03;100916.34;;;38.25;33.25
46954;BME280;32707;43.886;12.874;2022-07-01T12:09:29;100915.03;;;38.26;33.49
46954;BME280;32707;43.886;12.874;2022-07-01T12:11:54;100910.03;;;38.32;33.42
46954;BME280;32707;43.886;12.874;2022-07-01T12:14:33;100904.94;;;38.27;33.48
46954;BME280;32707;43.886;12.874;2022-07-01T12:17:01;100896.34;;;38.44;32.87
46954;BME280;32707;43.886;12.874;2022-07-01T12:19:45;100906.38;;;38.58;32.50
46954;BME280;32707;43.886;12.874;2022-07-01T12:22:19;100901.81;;;38.57;32.50
46954;BME280;32707;43.886;12.874;2022-07-01T12:24:48;100905.25;;;38.81;32.40
46954;BME280;32707;43.886;12.874;2022-07-01T12:27:14;100917.31;;;38.95;32.37
46954;BME280;32707;43.886;12.874;2022-07-01T12:32:10;100912.94;;;38.79;32.18
46954;BME280;32707;43.886;12.874;2022-07-01T12:34:47;100908.22;;;38.87;31.96
46954;BME280;32707;43.886;12.874;2022-07-01T12:37:19;100914.66;;;38.65;32.26
46954;BME280;32707;43.886;12.874;2022-07-01T12:39:54;100911.19;;;38.40;32.26
46954;BME280;32707;43.886;12.874;2022-07-01T12:44:46;100909.41;;;38.22;31.97
46954;BME280;32707;43.886;12.874;2022-07-01T12:47:42;100897.38;;;38.15;31.63
46954;BME280;32707;43.886;12.874;2022-07-01T12:50:22;100906.34;;;37.90;32.30
46954;BME280;32707;43.886;12.874;2022-07-01T12:53:00;100911.38;;;37.90;32.20
46954;BME280;32707;43.886;12.874;2022-07-01T12:55:28;100913.34;;;37.78;32.61
46954;BME280;32707;43.886;12.874;2022-07-01T12:57:57;100919.03;;;37.87;32.40
46954;BME280;32707;43.886;12.874;2022-07-01T13:00:26;100924.06;;;37.87;32.10
46954;BME280;32707;43.886;12.874;2022-07-01T13:02:58;100917.88;;;38.00;31.74
46954;BME280;32707;43.886;12.874;2022-07-01T13:05:24;100934.06;;;37.80;31.77
46954;BME280;32707;43.886;12.874;2022-07-01T13:07:50;100912.19;;;37.55;31.86